Terminal Aerodrome Forecast
Issued by NWS Charleston, WV

Current Version | Previous Version | Text Only | Print | Product List | Glossary Off
Versions: 1 2 3 4 5 6 7 8 9 10 11 12 13 14 15 16 17 18 19 20 21 22 23 24 25

542
FTUS41 KRLX 161444 AAC
TAFHTS
TAF AMD
KHTS 161444Z 1615/1712 29004KT 2SM -SN OVC013
      TEMPO 1615/1619 3/4SM -SN OVC006
     FM161900 29005KT 3SM -SN OVC015
      TEMPO 1619/1620 1SM -SN OVC007
     FM162200 30004KT P6SM BKN025=

USA.gov is the U.S. government's official web portal to all federal, state and local government web resources and services.